Time;durP1;ratioP1;P1;durP2;ratioP2;P2;SDS_P1;SDS_P2;PMS_P1;PMS_P2;Temp;Humidity;BMP_temperature;BMP_pressure;BME280_temperature;BME280_humidity;BME280_pressure;Samples;Min_cycle;Max_cycle;Signal;HPM_P1;HPM_P2
2022/10/09 00:00:07;;;;;;;;;;;;;;;;;;5012421;28;20290;-55
2022/10/09 00:02:35;;;;;;;;;;;;;;;;;;5012233;28;20147;-56
2022/10/09 00:05:02;;;;;;;;;;;;;;;;;;5012140;28;19937;-56
2022/10/09 00:07:28;;;;;;;;;;;;;;;;;;5011893;28;19925;-55
2022/10/09 00:09:55;;;;;;;;;;;;;;;;;;5012332;28;19979;-52
2022/10/09 00:12:22;;;;;;;;;;;;;;;;;;5011976;28;19976;-53
2022/10/09 00:14:48;;;;;;;;;;;;;;;;;;5012255;28;19976;-57
2022/10/09 00:17:15;;;;;;;;;;;;;;;;;;5011885;28;19926;-56
2022/10/09 00:19:43;;;;;;;;;;;;;;;;;;5012187;28;19925;-57
2022/10/09 00:22:09;;;;;;;;;;;;;;;;;;5012134;28;19929;-57
2022/10/09 00:24:36;;;;;;;;;;;;;;;;;;5012400;28;19925;-55
2022/10/09 00:27:02;;;;;;;;;;;;;;;;;;5012174;28;19932;-57
2022/10/09 00:29:29;;;;;;;;;;;;;;;;;;5014899;28;20375;-55
2022/10/09 00:31:55;;;;;;;;;;;;;;;;;;5015612;28;19929;-55
2022/10/09 00:34:22;;;;;;;;;;;;;;;;;;5015541;28;19929;-57
2022/10/09 00:36:50;;;;;;;;;;;;;;;;;;5015431;28;19932;-57
2022/10/09 00:39:16;;;;;;;;;;;;;;;;;;5015603;28;20316;-57
2022/10/09 00:41:43;;;;;;;;;;;;;;;;;;5015215;28;20437;-57
2022/10/09 00:44:24;;;;;;;;;;;;;;;;;;5015177;28;20399;-57
2022/10/09 00:46:52;;;;;;;;;;;;;;;;;;5014273;28;19926;-57
2022/10/09 00:49:21;;;;;;;;;;;;;;;;;;5015331;28;20306;-56
2022/10/09 00:51:49;;;;;;;;;;;;;;;;;;5015302;28;19936;-57
2022/10/09 00:54:20;;;;;;;;;;;;;;;;;;5015223;28;19925;-56
2022/10/09 00:56:47;;;;;;;;;;;;;;;;;;5014800;28;20382;-55
2022/10/09 00:59:14;;;;;;;;;;;;;;;;;;5014991;28;19933;-54
2022/10/09 01:01:41;;;;;;;;;;;;;;;;;;5014827;28;19926;-56
2022/10/09 01:04:08;;;;;;;;;;;;;;;;;;5014823;28;20426;-58
2022/10/09 01:06:44;;;;;;;;;;;;;;;;;;5014639;28;19925;-56
2022/10/09 01:09:13;;;;;;;;;;;;;;;;;;5014826;28;20324;-54
2022/10/09 01:11:45;;;;;;;;;;;;;;;;;;5014411;28;19932;-57
2022/10/09 01:14:18;;;;;;;;;;;;;;;;;;5014663;28;19997;-58
2022/10/09 01:16:47;;;;;;;;;;;;;;;;;;5014390;28;20382;-56
2022/10/09 01:19:19;;;;;;;;;;;;;;;;;;5014605;28;19925;-57
2022/10/09 01:21:50;;;;;;;;;;;;;;;;;;5014696;28;19926;-58
2022/10/09 01:24:24;;;;;;;;;;;;;;;;;;5014564;28;19925;-58
2022/10/09 01:27:04;;;;;;;;;;;;;;;;;;5015740;28;19929;-50
2022/10/09 01:29:33;;;;;;;;;;;;;;;;;;5015236;28;20441;-49
2022/10/09 01:32:00;;;;;;;;;;;;;;;;;;5016205;28;19976;-48
2022/10/09 01:34:27;;;;;;;;;;;;;;;;;;5017611;28;20314;-50
2022/10/09 01:36:54;;;;;;;;;;;;;;;;;;5021130;28;20566;-51
2022/10/09 01:39:22;;;;;;;;;;;;;;;;;;5021992;28;20489;-52
2022/10/09 01:41:50;;;;;;;;;;;;;;;;;;5021835;28;19930;-52
2022/10/09 01:44:18;;;;;;;;;;;;;;;;;;5015940;28;19980;-55
2022/10/09 01:46:45;;;;;;;;;;;;;;;;;;5013705;28;19925;-48
2022/10/09 01:49:15;;;;;;;;;;;;;;;;;;5013555;28;19980;-53
2022/10/09 01:51:46;;;;;;;;;;;;;;;;;;5013759;28;19929;-51
2022/10/09 01:54:14;;;;;;;;;;;;;;;;;;5013925;28;20330;-52
2022/10/09 01:56:41;;;;;;;;;;;;;;;;;;5013564;28;19933;-53
2022/10/09 01:59:11;;;;;;;;;;;;;;;;;;5013336;28;19925;-52
2022/10/09 02:01:41;;;;;;;;;;;;;;;;;;5013622;28;20020;-53
2022/10/09 02:04:09;;;;;;;;;;;;;;;;;;5033267;28;19947;-54
2022/10/09 02:06:37;;;;;;;;;;;;;;;;;;5033234;28;19933;-51
2022/10/09 02:09:04;;;;;;;;;;;;;;;;;;5032781;28;19925;-54
2022/10/09 02:11:31;;;;;;;;;;;;;;;;;;5033513;28;20032;-50
2022/10/09 02:13:58;;;;;;;;;;;;;;;;;;5033041;28;19979;-54
2022/10/09 02:16:29;;;;;;;;;;;;;;;;;;5032993;28;19932;-54
2022/10/09 02:18:58;;;;;;;;;;;;;;;;;;5032670;28;19925;-51
2022/10/09 02:21:26;;;;;;;;;;;;;;;;;;5033128;28;19932;-52
2022/10/09 02:23:54;;;;;;;;;;;;;;;;;;5032879;28;19972;-53
2022/10/09 02:26:21;;;;;;;;;;;;;;;;;;5032994;28;20317;-52
2022/10/09 02:28:48;;;;;;;;;;;;;;;;;;5032904;28;20263;-54
2022/10/09 02:31:17;;;;;;;;;;;;;;;;;;5032831;28;19990;-52
2022/10/09 02:33:44;;;;;;;;;;;;;;;;;;5032959;28;19925;-49
2022/10/09 02:36:13;;;;;;;;;;;;;;;;;;5032679;28;19940;-53
2022/10/09 02:38:39;;;;;;;;;;;;;;;;;;5032274;28;19976;-55
2022/10/09 02:41:06;;;;;;;;;;;;;;;;;;5032719;28;19929;-50
2022/10/09 02:43:32;;;;;;;;;;;;;;;;;;5032520;28;20291;-54
2022/10/09 02:45:59;;;;;;;;;;;;;;;;;;5032376;28;20349;-53
2022/10/09 02:48:25;;;;;;;;;;;;;;;;;;5032336;28;19925;-53
2022/10/09 02:50:52;;;;;;;;;;;;;;;;;;5031950;28;19925;-54
2022/10/09 02:53:20;;;;;;;;;;;;;;;;;;5032387;28;19979;-51
2022/10/09 02:55:46;;;;;;;;;;;;;;;;;;5032295;28;19925;-50
2022/10/09 02:58:13;;;;;;;;;;;;;;;;;;5032282;28;19925;-50
2022/10/09 03:00:39;;;;;;;;;;;;;;;;;;5031922;28;20441;-52
2022/10/09 03:03:06;;;;;;;;;;;;;;;;;;5020596;28;19980;-51
2022/10/09 03:05:32;;;;;;;;;;;;;;;;;;5012230;28;19972;-54
2022/10/09 03:07:59;;;;;;;;;;;;;;;;;;5012101;28;19960;-52
2022/10/09 03:10:27;;;;;;;;;;;;;;;;;;5012133;28;19926;-54
2022/10/09 03:12:53;;;;;;;;;;;;;;;;;;5012423;28;20386;-51
2022/10/09 03:15:20;;;;;;;;;;;;;;;;;;5012425;28;19933;-52
2022/10/09 03:17:46;;;;;;;;;;;;;;;;;;5012245;28;20341;-54
2022/10/09 03:20:13;;;;;;;;;;;;;;;;;;5012130;28;19980;-51
2022/10/09 03:22:40;;;;;;;;;;;;;;;;;;5012276;28;19929;-50
2022/10/09 03:25:07;;;;;;;;;;;;;;;;;;5012331;28;19988;-53
2022/10/09 03:27:35;;;;;;;;;;;;;;;;;;5012572;28;19925;-50
2022/10/09 03:30:01;;;;;;;;;;;;;;;;;;5011819;28;19971;-53
2022/10/09 03:32:28;;;;;;;;;;;;;;;;;;5012438;28;20338;-54
2022/10/09 03:34:54;;;;;;;;;;;;;;;;;;5012206;28;20437;-54
2022/10/09 03:37:21;;;;;;;;;;;;;;;;;;5012169;28;19926;-50
2022/10/09 03:39:47;;;;;;;;;;;;;;;;;;5011959;28;19926;-54
2022/10/09 03:42:14;;;;;;;;;;;;;;;;;;5012202;28;19988;-51
2022/10/09 03:44:42;;;;;;;;;;;;;;;;;;5011951;28;19949;-51
2022/10/09 03:47:08;;;;;;;;;;;;;;;;;;5012117;28;20383;-49
2022/10/09 03:49:35;;;;;;;;;;;;;;;;;;5011840;28;19972;-52
2022/10/09 03:52:02;;;;;;;;;;;;;;;;;;5012211;28;20409;-53
2022/10/09 03:54:28;;;;;;;;;;;;;;;;;;5011902;28;20419;-54
2022/10/09 03:56:55;;;;;;;;;;;;;;;;;;5011943;28;20330;-54
2022/10/09 03:59:21;;;;;;;;;;;;;;;;;;5011826;28;20606;-50
2022/10/09 04:01:49;;;;;;;;;;;;;;;;;;5012698;28;19933;-51
2022/10/09 04:04:16;;;;;;;;;;;;;;;;;;5034436;28;20394;-50
2022/10/09 04:06:42;;;;;;;;;;;;;;;;;;5035090;28;19934;-52
2022/10/09 04:09:09;;;;;;;;;;;;;;;;;;5035100;28;19925;-54
2022/10/09 04:11:36;;;;;;;;;;;;;;;;;;5035387;28;19925;-54
2022/10/09 04:14:02;;;;;;;;;;;;;;;;;;5035201;28;19929;-54
2022/10/09 04:16:29;;;;;;;;;;;;;;;;;;5035243;28;19979;-52
2022/10/09 04:18:57;;;;;;;;;;;;;;;;;;5034926;28;19925;-53
2022/10/09 04:21:24;;;;;;;;;;;;;;;;;;5035238;28;19971;-53
2022/10/09 04:23:50;;;;;;;;;;;;;;;;;;5035259;28;20020;-55
2022/10/09 04:26:17;;;;;;;;;;;;;;;;;;5035169;28;20471;-55
2022/10/09 04:28:43;;;;;;;;;;;;;;;;;;5034704;28;19929;-56
2022/10/09 04:31:10;;;;;;;;;;;;;;;;;;5035234;28;19928;-51
2022/10/09 04:33:36;;;;;;;;;;;;;;;;;;5035118;28;20271;-52
2022/10/09 04:36:04;;;;;;;;;;;;;;;;;;5035035;28;20346;-55
2022/10/09 04:38:31;;;;;;;;;;;;;;;;;;5034877;28;19929;-51
2022/10/09 04:40:58;;;;;;;;;;;;;;;;;;5034880;28;19929;-49
2022/10/09 04:43:25;;;;;;;;;;;;;;;;;;5035192;28;20433;-54
2022/10/09 04:45:52;;;;;;;;;;;;;;;;;;5036202;28;19955;-50
2022/10/09 04:48:18;;;;;;;;;;;;;;;;;;5038691;22;19985;-57
2022/10/09 04:50:45;;;;;;;;;;;;;;;;;;5015119;28;20370;-55
2022/10/09 04:53:13;;;;;;;;;;;;;;;;;;5015164;28;19926;-56
2022/10/09 04:55:40;;;;;;;;;;;;;;;;;;5015384;28;19929;-56
2022/10/09 04:58:07;;;;;;;;;;;;;;;;;;5015295;28;20281;-56
2022/10/09 05:00:33;;;;;;;;;;;;;;;;;;5014935;28;20437;-56
2022/10/09 05:03:00;;;;;;;;;;;;;;;;;;5015071;28;19980;-57
2022/10/09 05:05:27;;;;;;;;;;;;;;;;;;5014369;28;19925;-54
2022/10/09 05:07:53;;;;;;;;;;;;;;;;;;5014850;28;19933;-55
2022/10/09 05:10:21;;;;;;;;;;;;;;;;;;5014761;28;19929;-54
2022/10/09 05:12:48;;;;;;;;;;;;;;;;;;5014478;28;19933;-55
2022/10/09 05:15:14;;;;;;;;;;;;;;;;;;5014003;28;19925;-51
2022/10/09 05:17:41;;;;;;;;;;;;;;;;;;5014452;28;20299;-56
2022/10/09 05:20:10;;;;;;;;;;;;;;;;;;5014092;28;20456;-56
2022/10/09 05:22:36;;;;;;;;;;;;;;;;;;5015117;28;20286;-56
2022/10/09 05:25:03;;;;;;;;;;;;;;;;;;5014679;28;19925;-57
2022/10/09 05:27:31;;;;;;;;;;;;;;;;;;5014167;28;19925;-57
2022/10/09 05:29:57;;;;;;;;;;;;;;;;;;5014130;28;19932;-54
2022/10/09 05:32:24;;;;;;;;;;;;;;;;;;5014457;28;19925;-54
2022/10/09 05:34:51;;;;;;;;;;;;;;;;;;5014485;28;19929;-58
2022/10/09 05:37:17;;;;;;;;;;;;;;;;;;5014215;28;19925;-56
2022/10/09 05:39:44;;;;;;;;;;;;;;;;;;5014375;28;19925;-53
2022/10/09 05:42:11;;;;;;;;;;;;;;;;;;5014133;28;19987;-56
2022/10/09 05:44:38;;;;;;;;;;;;;;;;;;5014222;28;19932;-53
2022/10/09 05:47:05;;;;;;;;;;;;;;;;;;5014096;28;19925;-55
2022/10/09 05:49:32;;;;;;;;;;;;;;;;;;5014010;28;19925;-56
2022/10/09 05:51:58;;;;;;;;;;;;;;;;;;5014058;28;19969;-56
2022/10/09 05:54:26;;;;;;;;;;;;;;;;;;5013790;28;19972;-54
2022/10/09 05:56:52;;;;;;;;;;;;;;;;;;5013843;28;19925;-55
2022/10/09 05:59:19;;;;;;;;;;;;;;;;;;5013640;28;19925;-56
2022/10/09 06:01:48;;;;;;;;;;;;;;;;;;5013694;28;20023;-53
2022/10/09 06:04:16;;;;;;;;;;;;;;;;;;5013927;28;19933;-51
2022/10/09 06:06:43;;;;;;;;;;;;;;;;;;5013522;28;19926;-52
2022/10/09 06:09:10;;;;;;;;;;;;;;;;;;5013554;28;19925;-52
2022/10/09 06:11:38;;;;;;;;;;;;;;;;;;5013607;28;19925;-53
2022/10/09 06:14:05;;;;;;;;;;;;;;;;;;5013756;28;20303;-54
2022/10/09 06:16:32;;;;;;;;;;;;;;;;;;5013367;28;19934;-53
2022/10/09 06:19:01;;;;;;;;;;;;;;;;;;5013220;28;19932;-54
2022/10/09 06:21:28;;;;;;;;;;;;;;;;;;5013418;28;19967;-55
2022/10/09 06:23:55;;;;;;;;;;;;;;;;;;5013223;28;19957;-54
2022/10/09 06:26:22;;;;;;;;;;;;;;;;;;5012166;28;19975;-54
2022/10/09 06:28:49;;;;;;;;;;;;;;;;;;5013206;28;20386;-57
2022/10/09 06:31:17;;;;;;;;;;;;;;;;;;5013030;28;19960;-57
2022/10/09 06:33:44;;;;;;;;;;;;;;;;;;5013184;28;19925;-56
2022/10/09 06:36:12;;;;;;;;;;;;;;;;;;5013083;28;19925;-56
2022/10/09 06:38:40;;;;;;;;;;;;;;;;;;5013032;28;19929;-57
2022/10/09 06:41:07;;;;;;;;;;;;;;;;;;5013107;28;19932;-55
2022/10/09 06:43:34;;;;;;;;;;;;;;;;;;5013134;28;19925;-54
2022/10/09 06:46:02;;;;;;;;;;;;;;;;;;5013143;28;20584;-55
2022/10/09 06:48:28;;;;;;;;;;;;;;;;;;5013039;28;19979;-55
2022/10/09 06:50:55;;;;;;;;;;;;;;;;;;5013066;28;20283;-56
2022/10/09 06:53:23;;;;;;;;;;;;;;;;;;5013135;28;20497;-57
2022/10/09 06:55:53;;;;;;;;;;;;;;;;;;5012863;28;19925;-54
2022/10/09 06:58:19;;;;;;;;;;;;;;;;;;5013145;28;19988;-51
2022/10/09 07:00:46;;;;;;;;;;;;;;;;;;5013256;28;19979;-51
2022/10/09 07:03:13;;;;;;;;;;;;;;;;;;5013124;28;19933;-55
2022/10/09 07:05:39;;;;;;;;;;;;;;;;;;5012806;28;20390;-56
2022/10/09 07:08:06;;;;;;;;;;;;;;;;;;5012930;28;19925;-53
2022/10/09 07:10:34;;;;;;;;;;;;;;;;;;5012787;28;19925;-55
2022/10/09 07:13:00;;;;;;;;;;;;;;;;;;5012750;28;20031;-54
2022/10/09 07:15:27;;;;;;;;;;;;;;;;;;5012709;28;20334;-54
2022/10/09 07:17:53;;;;;;;;;;;;;;;;;;5012484;28;19932;-54
2022/10/09 07:20:20;;;;;;;;;;;;;;;;;;5012578;28;19929;-56
2022/10/09 07:22:46;;;;;;;;;;;;;;;;;;5012603;28;20351;-55
2022/10/09 07:25:13;;;;;;;;;;;;;;;;;;5012449;28;19930;-56
2022/10/09 07:27:41;;;;;;;;;;;;;;;;;;5012225;28;20276;-55
2022/10/09 07:30:08;;;;;;;;;;;;;;;;;;5012435;28;19949;-57
2022/10/09 07:32:35;;;;;;;;;;;;;;;;;;5012228;28;20305;-54
2022/10/09 07:35:01;;;;;;;;;;;;;;;;;;5012423;28;19930;-56
2022/10/09 07:37:28;;;;;;;;;;;;;;;;;;5013571;28;19976;-54
2022/10/09 07:39:54;;;;;;;;;;;;;;;;;;5016351;28;19976;-54
2022/10/09 07:42:21;;;;;;;;;;;;;;;;;;5016346;28;19925;-56
2022/10/09 07:44:49;;;;;;;;;;;;;;;;;;5016441;28;19925;-55
2022/10/09 07:47:16;;;;;;;;;;;;;;;;;;5015993;28;20000;-50
2022/10/09 07:49:42;;;;;;;;;;;;;;;;;;5016296;28;19929;-52
2022/10/09 07:52:09;;;;;;;;;;;;;;;;;;5015930;28;19976;-54
2022/10/09 07:54:35;;;;;;;;;;;;;;;;;;5016266;28;19992;-56
2022/10/09 07:57:02;;;;;;;;;;;;;;;;;;5015850;28;19975;-54
2022/10/09 07:59:28;;;;;;;;;;;;;;;;;;5016123;28;20402;-57
2022/10/09 08:01:57;;;;;;;;;;;;;;;;;;5015953;28;20375;-55
2022/10/09 08:04:23;;;;;;;;;;;;;;;;;;5015959;28;19971;-55
2022/10/09 08:06:50;;;;;;;;;;;;;;;;;;5015618;28;19957;-55
2022/10/09 08:09:17;;;;;;;;;;;;;;;;;;5015945;28;19976;-55
2022/10/09 08:11:44;;;;;;;;;;;;;;;;;;5015877;28;19925;-56
2022/10/09 08:14:11;;;;;;;;;;;;;;;;;;5015871;28;19925;-55
2022/10/09 08:16:38;;;;;;;;;;;;;;;;;;5015676;28;19926;-57
2022/10/09 08:19:06;;;;;;;;;;;;;;;;;;5015606;28;20298;-56
2022/10/09 08:21:33;;;;;;;;;;;;;;;;;;5015761;28;20382;-55
2022/10/09 08:23:59;;;;;;;;;;;;;;;;;;5015444;28;19925;-54
2022/10/09 08:26:27;;;;;;;;;;;;;;;;;;5015444;28;19932;-58
2022/10/09 08:28:55;;;;;;;;;;;;;;;;;;5015466;28;20378;-56
2022/10/09 08:31:21;;;;;;;;;;;;;;;;;;5015313;28;20409;-54
2022/10/09 08:33:51;;;;;;;;;;;;;;;;;;5015585;28;19972;-53
2022/10/09 08:36:19;;;;;;;;;;;;;;;;;;5015277;28;19984;-52
2022/10/09 08:38:46;;;;;;;;;;;;;;;;;;5015401;28;20389;-53
2022/10/09 08:41:16;;;;;;;;;;;;;;;;;;5015314;28;19934;-55
2022/10/09 08:43:45;;;;;;;;;;;;;;;;;;5015450;28;19925;-54
2022/10/09 08:46:15;;;;;;;;;;;;;;;;;;5015342;28;20046;-56
2022/10/09 08:48:44;;;;;;;;;;;;;;;;;;5014318;28;19930;-54
2022/10/09 08:51:13;;;;;;;;;;;;;;;;;;5015163;28;19975;-57
2022/10/09 08:53:45;;;;;;;;;;;;;;;;;;5014904;28;20275;-55
2022/10/09 08:56:13;;;;;;;;;;;;;;;;;;5015036;28;19925;-55
2022/10/09 08:58:40;;;;;;;;;;;;;;;;;;5014898;28;20275;-55
2022/10/09 09:01:13;;;;;;;;;;;;;;;;;;5015064;28;19961;-57
2022/10/09 09:03:45;;;;;;;;;;;;;;;;;;5014919;28;19932;-52
2022/10/09 09:06:14;;;;;;;;;;;;;;;;;;5015266;28;20243;-54
2022/10/09 09:08:45;;;;;;;;;;;;;;;;;;5015271;28;20280;-53
2022/10/09 09:11:17;;;;;;;;;;;;;;;;;;5015064;28;19925;-59
2022/10/09 09:13:52;;;;;;;;;;;;;;;;;;5014508;28;20326;-53
2022/10/09 09:16:24;;;;;;;;;;;;;;;;;;5014621;28;19925;-53
2022/10/09 09:18:56;;;;;;;;;;;;;;;;;;5014813;28;19975;-55
2022/10/09 09:21:30;;;;;;;;;;;;;;;;;;5015385;28;19984;-53
2022/10/09 09:24:00;;;;;;;;;;;;;;;;;;5015209;28;19929;-57
2022/10/09 09:26:27;;;;;;;;;;;;;;;;;;5014952;28;19949;-56
2022/10/09 09:28:57;;;;;;;;;;;;;;;;;;5015316;28;20290;-53
2022/10/09 09:31:25;;;;;;;;;;;;;;;;;;5014752;28;20398;-57
2022/10/09 09:33:55;;;;;;;;;;;;;;;;;;5015608;28;19952;-56
2022/10/09 09:36:23;;;;;;;;;;;;;;;;;;5015343;28;19926;-53
2022/10/09 09:38:50;;;;;;;;;;;;;;;;;;5014150;28;19933;-53
2022/10/09 09:41:18;;;;;;;;;;;;;;;;;;5014422;28;19933;-57
2022/10/09 09:43:45;;;;;;;;;;;;;;;;;;5014135;28;19932;-58
2022/10/09 09:46:14;;;;;;;;;;;;;;;;;;5014239;28;19932;-57
2022/10/09 09:48:42;;;;;;;;;;;;;;;;;;5013632;28;19980;-57
2022/10/09 09:51:13;;;;;;;;;;;;;;;;;;5013793;28;19988;-56
2022/10/09 09:53:42;;;;;;;;;;;;;;;;;;5013970;28;19934;-58
2022/10/09 09:56:09;;;;;;;;;;;;;;;;;;5014050;28;19947;-53
2022/10/09 09:58:39;;;;;;;;;;;;;;;;;;5014196;28;19949;-52
2022/10/09 10:01:06;;;;;;;;;;;;;;;;;;5013093;28;19949;-56
2022/10/09 10:03:34;;;;;;;;;;;;;;;;;;5013967;28;20013;-61
2022/10/09 10:06:00;;;;;;;;;;;;;;;;;;5014120;28;20382;-58
2022/10/09 10:08:28;;;;;;;;;;;;;;;;;;5013880;28;19936;-56
2022/10/09 10:10:56;;;;;;;;;;;;;;;;;;5013970;28;19925;-49
2022/10/09 10:13:27;;;;;;;;;;;;;;;;;;5014130;28;20024;-49
2022/10/09 10:15:55;;;;;;;;;;;;;;;;;;5013889;28;19940;-64
2022/10/09 10:18:23;;;;;;;;;;;;;;;;;;5013783;28;19933;-50
2022/10/09 10:20:50;;;;;;;;;;;;;;;;;;5014307;28;20190;-51
2022/10/09 10:23:25;;;;;;;;;;;;;;;;;;5013865;28;19926;-51
2022/10/09 10:25:53;;;;;;;;;;;;;;;;;;5014166;28;20184;-50
2022/10/09 10:28:24;;;;;;;;;;;;;;;;;;5013821;28;19925;-51
2022/10/09 10:30:51;;;;;;;;;;;;;;;;;;5014054;28;20419;-53
2022/10/09 10:33:22;;;;;;;;;;;;;;;;;;5013735;28;19925;-53
2022/10/09 10:35:49;;;;;;;;;;;;;;;;;;5013781;28;20379;-53
2022/10/09 10:38:18;;;;;;;;;;;;;;;;;;5013565;28;19933;-50
2022/10/09 10:40:49;;;;;;;;;;;;;;;;;;5014190;28;19976;-51
2022/10/09 10:43:22;;;;;;;;;;;;;;;;;;5014045;28;20355;-54
2022/10/09 10:45:54;;;;;;;;;;;;;;;;;;5014026;28;20350;-53
2022/10/09 10:48:24;;;;;;;;;;;;;;;;;;5014276;28;20383;-54
2022/10/09 10:50:56;;;;;;;;;;;;;;;;;;5013716;28;20041;-50
2022/10/09 10:53:27;;;;;;;;;;;;;;;;;;5013657;28;19929;-50
2022/10/09 10:55:55;;;;;;;;;;;;;;;;;;5013742;28;19951;-50
2022/10/09 10:58:25;;;;;;;;;;;;;;;;;;5012953;28;20004;-52
2022/10/09 11:00:54;;;;;;;;;;;;;;;;;;5014102;28;20024;-49
2022/10/09 11:03:33;;;;;;;;;;;;;;;;;;5026781;28;19925;-49
2022/10/09 11:06:04;;;;;;;;;;;;;;;;;;5033972;28;20015;-49
2022/10/09 11:08:38;;;;;;;;;;;;;;;;;;5032923;28;19925;-52
2022/10/09 11:11:08;;;;;;;;;;;;;;;;;;5033297;28;19972;-51
2022/10/09 11:13:37;;;;;;;;;;;;;;;;;;5032792;28;19925;-50
2022/10/09 11:16:09;;;;;;;;;;;;;;;;;;5032954;28;19973;-50
2022/10/09 11:18:47;;;;;;;;;;;;;;;;;;5015379;28;19947;-53
2022/10/09 11:21:28;;;;;;;;;;;;;;;;;;5032802;28;19936;-48
2022/10/09 11:24:11;;;;;;;;;;;;;;;;;;5032551;28;20275;-50
2022/10/09 11:26:43;;;;;;;;;;;;;;;;;;5032458;28;19936;-49
2022/10/09 11:29:15;;;;;;;;;;;;;;;;;;5032393;28;20397;-52
2022/10/09 11:31:44;;;;;;;;;;;;;;;;;;5033529;28;19958;-52
2022/10/09 11:34:14;;;;;;;;;;;;;;;;;;5033105;28;19925;-51
2022/10/09 11:36:41;;;;;;;;;;;;;;;;;;5033063;28;20426;-49
2022/10/09 11:39:12;;;;;;;;;;;;;;;;;;5032260;28;20044;-48
2022/10/09 11:41:40;;;;;;;;;;;;;;;;;;5032781;28;20337;-51
2022/10/09 11:44:33;;;;;;;;;;;;;;;;;;5032583;28;19925;-50
2022/10/09 11:47:04;;;;;;;;;;;;;;;;;;4975327;28;20283;-51
2022/10/09 11:49:35;;;;;;;;;;;;;;;;;;5032673;28;19932;-49
2022/10/09 11:52:08;;;;;;;;;;;;;;;;;;5033689;28;19925;-49
2022/10/09 11:54:35;;;;;;;;;;;;;;;;;;5033537;28;19925;-49
2022/10/09 11:57:03;;;;;;;;;;;;;;;;;;5033270;28;20290;-54
2022/10/09 11:59:30;;;;;;;;;;;;;;;;;;5033201;28;20153;-50
2022/10/09 12:01:57;;;;;;;;;;;;;;;;;;5031885;28;19932;-50
2022/10/09 12:04:28;;;;;;;;;;;;;;;;;;5013952;28;20012;-55
2022/10/09 12:06:57;;;;;;;;;;;;;;;;;;5013774;28;19929;-55
2022/10/09 12:09:26;;;;;;;;;;;;;;;;;;5014051;28;20383;-51
2022/10/09 12:12:00;;;;;;;;;;;;;;;;;;5013102;28;20003;-51
2022/10/09 12:14:28;;;;;;;;;;;;;;;;;;5013271;28;20333;-50
2022/10/09 12:16:55;;;;;;;;;;;;;;;;;;5012591;28;20279;-54
2022/10/09 12:19:23;;;;;;;;;;;;;;;;;;5012413;28;20345;-49
2022/10/09 12:21:51;;;;;;;;;;;;;;;;;;5012742;28;19941;-49
2022/10/09 12:24:20;;;;;;;;;;;;;;;;;;5013962;28;19926;-52
2022/10/09 12:26:47;;;;;;;;;;;;;;;;;;5016519;28;19981;-53
2022/10/09 12:29:18;;;;;;;;;;;;;;;;;;5016461;28;19948;-53
2022/10/09 12:31:45;;;;;;;;;;;;;;;;;;5017104;28;19925;-51
2022/10/09 12:34:17;;;;;;;;;;;;;;;;;;5016168;28;20359;-52
2022/10/09 12:36:43;;;;;;;;;;;;;;;;;;5015667;28;19925;-52
2022/10/09 12:39:14;;;;;;;;;;;;;;;;;;5016048;28;20298;-48
2022/10/09 12:41:43;;;;;;;;;;;;;;;;;;5015737;28;19929;-53
2022/10/09 12:44:17;;;;;;;;;;;;;;;;;;5016054;28;19926;-53
2022/10/09 12:46:44;;;;;;;;;;;;;;;;;;5045714;22;19957;-77
2022/10/09 12:49:16;;;;;;;;;;;;;;;;;;5034949;28;20431;-78
2022/10/09 12:51:49;;;;;;;;;;;;;;;;;;5035311;28;19971;-77
2022/10/09 12:54:15;;;;;;;;;;;;;;;;;;5037316;28;19925;-77
2022/10/09 12:56:43;;;;;;;;;;;;;;;;;;5036236;28;19979;-77
2022/10/09 12:59:11;;;;;;;;;;;;;;;;;;5035434;28;19933;-77
2022/10/09 13:01:38;;;;;;;;;;;;;;;;;;5034890;28;19971;-77
2022/10/09 13:04:05;;;;;;;;;;;;;;;;;;5015448;28;19969;-77
2022/10/09 13:06:34;;;;;;;;;;;;;;;;;;5015342;28;19929;-77
2022/10/09 13:09:01;;;;;;;;;;;;;;;;;;5014817;28;20609;-77
2022/10/09 13:11:33;;;;;;;;;;;;;;;;;;5014860;28;19932;-77
2022/10/09 13:14:01;;;;;;;;;;;;;;;;;;5015137;28;19929;-77
2022/10/09 13:16:38;;;;;;;;;;;;;;;;;;5014710;28;20376;-79
2022/10/09 13:19:22;;;;;;;;;;;;;;;;;;5015093;28;19932;-77
2022/10/09 13:21:59;;;;;;;;;;;;;;;;;;5015049;28;19925;-77
2022/10/09 13:24:26;;;;;;;;;;;;;;;;;;5014961;28;19929;-77
2022/10/09 13:26:53;;;;;;;;;;;;;;;;;;5018941;28;19929;-77
2022/10/09 13:29:21;;;;;;;;;;;;;;;;;;5020432;28;20012;-77
2022/10/09 13:31:47;;;;;;;;;;;;;;;;;;5017569;28;19976;-77
2022/10/09 13:34:15;;;;;;;;;;;;;;;;;;5015487;28;19964;-77
2022/10/09 13:36:41;;;;;;;;;;;;;;;;;;5016048;28;20392;-75
2022/10/09 13:39:13;;;;;;;;;;;;;;;;;;5016246;28;19948;-76
2022/10/09 13:41:39;;;;;;;;;;;;;;;;;;5015976;28;19929;-77
2022/10/09 13:44:05;;;;;;;;;;;;;;;;;;5014755;28;20367;-77
2022/10/09 13:46:33;;;;;;;;;;;;;;;;;;5014164;28;19926;-77
2022/10/09 13:49:00;;;;;;;;;;;;;;;;;;5014704;28;19968;-76
2022/10/09 13:51:28;;;;;;;;;;;;;;;;;;5013902;28;20430;-76
2022/10/09 13:53:54;;;;;;;;;;;;;;;;;;5014910;28;19929;-77
2022/10/09 13:56:20;;;;;;;;;;;;;;;;;;5013785;28;20031;-77
2022/10/09 13:58:47;;;;;;;;;;;;;;;;;;5014829;28;19975;-77
2022/10/09 14:01:13;;;;;;;;;;;;;;;;;;5013286;28;19972;-76
2022/10/09 14:03:41;;;;;;;;;;;;;;;;;;5029633;28;19968;-76
2022/10/09 14:06:08;;;;;;;;;;;;;;;;;;5033648;28;19980;-77
2022/10/09 14:08:34;;;;;;;;;;;;;;;;;;5033557;28;19964;-76
2022/10/09 14:11:01;;;;;;;;;;;;;;;;;;5033381;28;19925;-76
2022/10/09 14:13:28;;;;;;;;;;;;;;;;;;5033823;28;19929;-76
2022/10/09 14:15:55;;;;;;;;;;;;;;;;;;5032971;28;20349;-76
2022/10/09 14:18:21;;;;;;;;;;;;;;;;;;5033296;28;20427;-76
2022/10/09 14:20:49;;;;;;;;;;;;;;;;;;5032981;28;19925;-75
2022/10/09 14:23:15;;;;;;;;;;;;;;;;;;5033428;28;20007;-76
2022/10/09 14:25:42;;;;;;;;;;;;;;;;;;5032966;28;20008;-76
2022/10/09 14:28:08;;;;;;;;;;;;;;;;;;5033402;28;20020;-76
2022/10/09 14:30:39;;;;;;;;;;;;;;;;;;5033306;28;19925;-76
2022/10/09 14:33:05;;;;;;;;;;;;;;;;;;5033409;28;20380;-75
2022/10/09 14:35:32;;;;;;;;;;;;;;;;;;5032755;28;19968;-76
2022/10/09 14:37:59;;;;;;;;;;;;;;;;;;5032994;28;20027;-76
2022/10/09 14:40:26;;;;;;;;;;;;;;;;;;5033278;28;20015;-76
2022/10/09 14:42:52;;;;;;;;;;;;;;;;;;5033342;28;19925;-76
2022/10/09 14:45:19;;;;;;;;;;;;;;;;;;5032848;28;19931;-76
2022/10/09 14:47:45;;;;;;;;;;;;;;;;;;5032206;28;20011;-76
2022/10/09 14:50:12;;;;;;;;;;;;;;;;;;5032569;28;19976;-76
2022/10/09 14:52:38;;;;;;;;;;;;;;;;;;5033020;28;19925;-76
2022/10/09 14:55:06;;;;;;;;;;;;;;;;;;5032570;28;20012;-76
2022/10/09 14:57:33;;;;;;;;;;;;;;;;;;5032555;28;20016;-77
2022/10/09 14:59:59;;;;;;;;;;;;;;;;;;5032459;28;19931;-77
2022/10/09 15:02:26;;;;;;;;;;;;;;;;;;5026852;28;20016;-76
2022/10/09 15:04:52;;;;;;;;;;;;;;;;;;5012855;28;20024;-76
2022/10/09 15:07:19;;;;;;;;;;;;;;;;;;5012883;28;20016;-76
2022/10/09 15:09:45;;;;;;;;;;;;;;;;;;5013215;28;19972;-76
2022/10/09 15:12:13;;;;;;;;;;;;;;;;;;5013931;28;19933;-77
2022/10/09 15:14:39;;;;;;;;;;;;;;;;;;5013145;28;19932;-76
2022/10/09 15:17:06;;;;;;;;;;;;;;;;;;5012715;28;19965;-77
2022/10/09 15:19:33;;;;;;;;;;;;;;;;;;5013078;28;19926;-76
2022/10/09 15:21:59;;;;;;;;;;;;;;;;;;5012431;28;19926;-76
2022/10/09 15:24:26;;;;;;;;;;;;;;;;;;5013018;28;19926;-76
2022/10/09 15:26:52;;;;;;;;;;;;;;;;;;5012833;28;20033;-76
2022/10/09 15:29:20;;;;;;;;;;;;;;;;;;5012872;28;19968;-76
2022/10/09 15:31:46;;;;;;;;;;;;;;;;;;5012689;28;20012;-77
2022/10/09 15:34:15;;;;;;;;;;;;;;;;;;5012284;28;19929;-77
2022/10/09 15:36:43;;;;;;;;;;;;;;;;;;5012718;28;19925;-77
2022/10/09 15:39:09;;;;;;;;;;;;;;;;;;5012884;28;19926;-77
2022/10/09 15:41:37;;;;;;;;;;;;;;;;;;5012305;28;19932;-77
2022/10/09 15:44:04;;;;;;;;;;;;;;;;;;5012730;28;20024;-77
2022/10/09 15:46:32;;;;;;;;;;;;;;;;;;5012656;28;20016;-77
2022/10/09 15:48:59;;;;;;;;;;;;;;;;;;5012701;28;19933;-77
2022/10/09 15:51:25;;;;;;;;;;;;;;;;;;5012544;28;19926;-77
2022/10/09 15:53:52;;;;;;;;;;;;;;;;;;5013004;28;19932;-77
2022/10/09 15:56:19;;;;;;;;;;;;;;;;;;5012319;28;20392;-77
2022/10/09 15:58:46;;;;;;;;;;;;;;;;;;5014016;28;19952;-76
2022/10/09 16:01:13;;;;;;;;;;;;;;;;;;5015986;28;20308;-76
2022/10/09 16:03:41;;;;;;;;;;;;;;;;;;5032440;28;19965;-77
2022/10/09 16:06:09;;;;;;;;;;;;;;;;;;5035926;28;20386;-77
2022/10/09 16:08:35;;;;;;;;;;;;;;;;;;5036576;28;20008;-77
2022/10/09 16:11:04;;;;;;;;;;;;;;;;;;5035916;28;19925;-76
2022/10/09 16:13:30;;;;;;;;;;;;;;;;;;5035909;28;19925;-77
2022/10/09 16:15:57;;;;;;;;;;;;;;;;;;5036099;28;20273;-75
2022/10/09 16:18:24;;;;;;;;;;;;;;;;;;5036175;28;19995;-77
2022/10/09 16:20:52;;;;;;;;;;;;;;;;;;5033400;28;20399;-76
2022/10/09 16:23:18;;;;;;;;;;;;;;;;;;5025001;28;20340;-77
2022/10/09 16:25:55;;;;;;;;;;;;;;;;;;5022144;28;20303;-77
2022/10/09 16:28:22;;;;;;;;;;;;;;;;;;5035728;28;19926;-77
2022/10/09 16:30:48;;;;;;;;;;;;;;;;;;5036144;28;20028;-77
2022/10/09 16:33:15;;;;;;;;;;;;;;;;;;5036073;28;19925;-77
2022/10/09 16:35:41;;;;;;;;;;;;;;;;;;5035658;28;19925;-77
2022/10/09 16:38:09;;;;;;;;;;;;;;;;;;5035744;28;19925;-77
2022/10/09 16:40:42;;;;;;;;;;;;;;;;;;5035614;28;20379;-77
2022/10/09 16:43:08;;;;;;;;;;;;;;;;;;5035574;28;20367;-77
2022/10/09 16:45:35;;;;;;;;;;;;;;;;;;5035633;28;20011;-77
2022/10/09 16:48:01;;;;;;;;;;;;;;;;;;5035757;28;19977;-77
2022/10/09 16:50:28;;;;;;;;;;;;;;;;;;5038777;28;20036;-77